^^
Station Historical Data
 
Daily Summary for July 19, 2018 Units:  Metric    English   Both
« Previous Day
Next Day »
Daily Weekly Monthly Yearly Custom
  Current: High: Low: Average:
Temperature: 13 °C -17.8 °C 12.9 °C 12.8 °C
Dew Point: 1.6 °C -17.8 °C 1.6 °C 1.2 °C
Humidity: 46% Humidity% 42% 42%
Wind Speed: 4.7km/h 0km/h 3.2km/h 7.4km/h
Wind Gust: 12.9km/h 0km/h - -
WindNE - - NE
Pressure: 1023.9 hPa 0 hPa 1023.9 hPa -
Precipitation: 0 mm      
Historical Graphs
 
 
Tabular Data for July 19, 2018
Time Temperature Dew Point Pressure Wind Wind Speed Wind Gust Humidity Rainfall Rate (Hourly) solar Conditions
-17.8 °C -17.8 °C 0 hPa Calm     Humidity% 0 mm SolarRadiationWatts/m^2 W/m2 Conditions
00:02 15.1 °C 2.3 °C 1024.6 hPa NE 16.3 km/h 16.1 km/h 42% 0 mm 0.00 W/m2
00:08 15 °C 2.2 °C 1024.6 hPa NNE 11.1 km/h 14.5 km/h 42% 0 mm 0.00 W/m2
00:13 14.8 °C 2.3 °C 1024.6 hPa NE 11.1 km/h 12.9 km/h 43% 0 mm 0.00 W/m2
00:19 14.7 °C 2.2 °C 1024.6 hPa NE 9.7 km/h 11.3 km/h 43% 0 mm 0.00 W/m2
00:23 14.7 °C 2.2 °C 1024.6 hPa NNE 6.4 km/h 11.3 km/h 43% 0 mm 0.00 W/m2
00:29 14.8 °C 2 °C 1024.3 hPa NE 7.9 km/h 14.5 km/h 42% 0 mm 0.00 W/m2
00:33 14.9 °C 2.1 °C 1024.3 hPa NE 7.9 km/h 14.5 km/h 42% 0 mm 0.00 W/m2
00:39 14.9 °C 2.1 °C 1024.3 hPa NE 6.4 km/h 14.5 km/h 42% 0 mm 0.00 W/m2
00:43 14.8 °C 2 °C 1024.3 hPa NE 7.9 km/h 12.9 km/h 42% 0 mm 0.00 W/m2
00:49 14.4 °C 2 °C 1023.9 hPa NE 13 km/h 14.5 km/h 43% 0 mm 0.00 W/m2
00:53 14.3 °C 1.9 °C 1024.3 hPa NE 6.4 km/h 12.9 km/h 43% 0 mm 0.00 W/m2
00:58 14.3 °C 1.9 °C 1024.3 hPa NE 3.2 km/h 11.3 km/h 43% 0 mm 0.00 W/m2
01:04 14.1 °C 2 °C 1024.3 hPa NE 6.4 km/h 11.3 km/h 44% 0 mm 0.00 W/m2
01:08 13.9 °C 1.8 °C 1024.3 hPa NE 9.7 km/h 12.9 km/h 44% 0 mm 0.00 W/m2
01:14 13.8 °C 1.8 °C 1023.9 hPa NE 7.9 km/h 11.3 km/h 44% 0 mm 0.00 W/m2
01:18 13.7 °C 1.7 °C 1023.9 hPa NE 7.9 km/h 9.7 km/h 44% 0 mm 0.00 W/m2
01:24 13.6 °C 1.9 °C 1023.9 hPa NE 4.7 km/h 8 km/h 45% 0 mm 0.00 W/m2
01:28 13.4 °C 1.7 °C 1023.9 hPa NE 4.7 km/h 9.7 km/h 45% 0 mm 0.00 W/m2
01:34 13.1 °C 1.7 °C 1023.9 hPa NE 7.9 km/h 11.3 km/h 46% 0 mm 0.00 W/m2
01:38 12.9 °C 1.9 °C 1023.9 hPa NE 6.4 km/h 11.3 km/h 47% 0 mm 0.00 W/m2
01:42 12.9 °C 1.9 °C 1023.9 hPa NE 6.4 km/h 12.9 km/h 47% 0 mm 0.00 W/m2
01:49 13.1 °C 1.7 °C 1023.9 hPa NE 4.7 km/h 9.7 km/h 46% 0 mm 0.00 W/m2
01:53 13.2 °C 1.8 °C 1023.9 hPa NE 6.4 km/h 12.9 km/h 46% 0 mm 0.00 W/m2
01:59 13 °C 1.6 °C 1023.9 hPa NE 4.7 km/h 12.9 km/h 46% 0 mm 0.00 W/m2
Canyon Roadhouse, Fishriver Canyon, Namibia
Compliments of Weather Underground - 1.75 mb